Time;durP1;ratioP1;P1;durP2;ratioP2;P2;SDS_P1;SDS_P2;PMS_P1;PMS_P2;Temp;Humidity;BMP_temperature;BMP_pressure;BME280_temperature;BME280_humidity;BME280_pressure;Samples;Min_cycle;Max_cycle;Signal;HPM_P1;HPM_P2
2023/12/06 00:00:17;;;;;;;0.30;0.30;;;;;;;0.77;100.00;95338.56;1031187;28;20031;-77
2023/12/06 00:00:47;;;;;;;0.20;0.20;;;;;;;0.76;100.00;95337.00;1031033;28;20019;-78
2023/12/06 00:01:18;;;;;;;0.03;0.03;;;;;;;0.74;100.00;95331.25;1035330;28;20014;-78
2023/12/06 00:01:48;;;;;;;0.00;0.00;;;;;;;0.75;100.00;95345.75;1039307;28;20413;-78
2023/12/06 00:02:19;;;;;;;0.25;0.25;;;;;;;0.69;100.00;95326.72;1034375;28;20100;-77
2023/12/06 00:02:49;;;;;;;0.10;0.10;;;;;;;0.71;100.00;95340.22;1039732;28;20025;-78
2023/12/06 00:03:20;;;;;;;0.43;0.43;;;;;;;0.67;100.00;95334.69;1039541;28;20587;-77
2023/12/06 00:03:50;;;;;;;0.03;0.03;;;;;;;0.66;100.00;95327.16;1043069;28;20017;-76
2023/12/06 00:04:21;;;;;;;0.32;0.32;;;;;;;0.71;100.00;95340.22;1035150;28;20486;-78
2023/12/06 00:04:51;;;;;;;0.22;0.22;;;;;;;0.70;100.00;95330.88;1027129;28;20055;-78
2023/12/06 00:05:22;;;;;;;0.10;0.10;;;;;;;0.73;100.00;95340.00;1031369;28;20041;-78
2023/12/06 00:05:52;;;;;;;0.38;0.38;;;;;;;0.70;100.00;95339.44;1039406;28;20036;-78
2023/12/06 00:06:24;;;;;;;0.03;0.03;;;;;;;0.66;100.00;95329.72;1039272;28;20029;-77
2023/12/06 00:06:54;;;;;;;0.20;0.20;;;;;;;0.75;100.00;95343.19;1043239;28;20134;-79
2023/12/06 00:07:25;;;;;;;0.15;0.15;;;;;;;0.73;100.00;95335.63;1039108;28;20436;-78
2023/12/06 00:07:55;;;;;;;1.08;0.98;;;;;;;0.69;100.00;95337.84;1039437;28;20052;-78
2023/12/06 00:08:26;;;;;;;0.00;0.00;;;;;;;0.66;100.00;95335.69;1043820;28;20112;-77
2023/12/06 00:08:56;;;;;;;0.17;0.17;;;;;;;0.67;100.00;95342.44;1034960;28;20036;-78
2023/12/06 00:09:27;;;;;;;0.00;0.00;;;;;;;0.67;100.00;95342.44;1039338;28;20332;-77
2023/12/06 00:09:58;;;;;;;0.20;0.20;;;;;;;0.65;100.00;95331.53;1034933;28;20061;-78
2023/12/06 00:10:28;;;;;;;0.00;0.00;;;;;;;0.73;100.00;95350.34;1022416;29;20027;-78
2023/12/06 00:10:59;;;;;;;0.00;0.00;;;;;;;0.72;100.00;95341.00;1027075;28;20035;-78
2023/12/06 00:11:30;;;;;;;0.05;0.05;;;;;;;0.64;100.00;95335.13;1027179;28;20464;-77
2023/12/06 00:12:00;;;;;;;0.20;0.20;;;;;;;0.70;100.00;95336.03;1022333;28;20039;-78
2023/12/06 00:12:31;;;;;;;0.00;0.00;;;;;;;0.70;100.00;95344.59;1029512;28;20030;-76
2023/12/06 00:13:01;;;;;;;4.63;0.43;;;;;;;0.67;100.00;95334.69;1027227;28;20069;-77
2023/12/06 00:13:32;;;;;;;0.68;0.68;;;;;;;0.60;100.00;95333.13;1035203;28;20425;-77
2023/12/06 00:14:02;;;;;;;0.63;0.63;;;;;;;0.64;100.00;95331.75;1047451;28;20151;-78
2023/12/06 00:14:32;;;;;;;0.05;0.05;;;;;;;0.70;100.00;95341.22;1035052;28;20033;-78
2023/12/06 00:15:03;;;;;;;0.00;0.00;;;;;;;0.75;100.00;95341.38;1026982;28;20039;-78
2023/12/06 00:15:34;;;;;;;0.00;0.00;;;;;;;0.76;100.00;95342.16;1031394;28;20047;-78
2023/12/06 00:16:05;;;;;;;0.00;0.00;;;;;;;0.70;100.00;95334.28;1039178;28;20033;-78
2023/12/06 00:16:39;;;;;;;0.00;0.00;;;;;;;0.63;100.00;95332.72;1031452;28;20093;-78
2023/12/06 00:17:10;;;;;;;0.00;0.00;;;;;;;0.73;100.00;95345.94;1035009;28;20049;-78
2023/12/06 00:17:41;;;;;;;0.17;0.17;;;;;;;0.70;100.00;95342.03;1035059;28;20037;-75
2023/12/06 00:18:11;;;;;;;0.20;0.20;;;;;;;0.69;100.00;95340.41;1031499;28;20589;-77
2023/12/06 00:18:43;;;;;;;0.00;0.00;;;;;;;0.68;100.00;95331.09;1035295;28;20025;-77
2023/12/06 00:19:14;;;;;;;0.00;0.00;;;;;;;0.68;100.00;95341.44;1035093;28;20029;-77
2023/12/06 00:19:44;;;;;;;0.35;0.30;;;;;;;0.69;100.00;95348.16;1035319;28;20398;-78
2023/12/06 00:20:15;;;;;;;0.17;0.17;;;;;;;0.65;100.00;95331.53;1035041;28;20458;-77
2023/12/06 00:20:45;;;;;;;0.10;0.10;;;;;;;0.64;100.00;95345.44;1035417;28;20030;-78
2023/12/06 00:21:16;;;;;;;0.20;0.20;;;;;;;0.66;100.00;95338.25;1031025;28;20030;-78
2023/12/06 00:21:46;;;;;;;0.22;0.22;;;;;;;0.67;100.00;95347.59;1031188;28;20537;-78
2023/12/06 00:22:17;;;;;;;0.60;0.35;;;;;;;0.59;100.00;95340.09;1026911;28;20049;-78
2023/12/06 00:22:47;;;;;;;0.38;0.32;;;;;;;0.69;100.00;95349.97;1034408;28;20072;-77
2023/12/06 00:23:18;;;;;;;0.00;0.00;;;;;;;0.69;100.00;95348.16;1043738;28;20051;-78
2023/12/06 00:23:48;;;;;;;0.32;0.32;;;;;;;0.67;100.00;95342.44;1043312;28;20037;-78
2023/12/06 00:24:19;;;;;;;0.00;0.00;;;;;;;0.67;100.00;95350.19;1024324;28;20023;-78
2023/12/06 00:24:53;;;;;;;0.00;0.00;;;;;;;0.67;100.00;95347.59;1027331;28;20137;-78
2023/12/06 00:25:23;;;;;;;0.00;0.00;;;;;;;0.64;100.00;95340.28;1022963;28;20031;-78
2023/12/06 00:25:54;;;;;;;0.52;0.43;;;;;;;0.70;100.00;95351.53;1030569;28;20534;-78
2023/12/06 00:26:25;;;;;;;0.00;0.00;;;;;;;0.68;100.00;95338.84;1035389;28;20060;-78
2023/12/06 00:26:55;;;;;;;0.40;0.40;;;;;;;0.68;100.00;95336.28;1031008;28;20026;-77
2023/12/06 00:27:25;;;;;;;0.10;0.10;;;;;;;0.68;100.00;95344.00;1031324;28;20018;-78
2023/12/06 00:27:56;;;;;;;0.00;0.00;;;;;;;0.72;100.00;95341.00;1034790;28;20018;-78
2023/12/06 00:28:26;;;;;;;0.00;0.00;;;;;;;0.68;100.00;95340.66;1043263;28;20503;-78
2023/12/06 00:28:57;;;;;;;0.30;0.30;;;;;;;0.74;100.00;95351.91;1035275;28;20018;-78
2023/12/06 00:29:27;;;;;;;0.03;0.03;;;;;;;0.72;100.00;95357.28;1034640;28;20037;-78
2023/12/06 00:29:58;;;;;;;0.00;0.00;;;;;;;0.73;100.00;95342.59;1034809;28;20522;-78
2023/12/06 00:30:28;;;;;;;0.00;0.00;;;;;;;0.72;100.00;95351.34;1039185;28;20433;-78
2023/12/06 00:30:59;;;;;;;0.25;0.10;;;;;;;0.69;100.00;95347.38;1034738;28;20026;-78
2023/12/06 00:31:29;;;;;;;0.00;0.00;;;;;;;0.73;100.00;95347.75;1039278;28;20025;-78
2023/12/06 00:31:59;;;;;;;0.00;0.00;;;;;;;0.67;100.00;95339.88;1036660;28;20410;-78
2023/12/06 00:32:30;;;;;;;0.63;0.50;;;;;;;0.62;100.00;95342.25;1036133;28;20398;-78
2023/12/06 00:33:00;;;;;;;0.00;0.00;;;;;;;0.70;100.00;95348.94;1041949;28;20037;-77
2023/12/06 00:33:31;;;;;;;0.00;0.00;;;;;;;0.69;100.00;95347.38;1028101;28;20549;-78
2023/12/06 00:34:01;;;;;;;0.10;0.10;;;;;;;0.68;100.00;95351.75;1026706;28;20348;-77
2023/12/06 00:34:32;;;;;;;0.43;0.43;;;;;;;0.66;100.00;95342.63;1030940;28;20049;-78
2023/12/06 00:35:03;;;;;;;0.30;0.30;;;;;;;0.72;100.00;95354.72;1030901;28;20030;-78
2023/12/06 00:35:34;;;;;;;0.14;0.14;;;;;;;0.67;100.00;95346.78;1035337;28;20564;-78
2023/12/06 00:36:04;;;;;;;0.00;0.00;;;;;;;0.66;100.00;95343.41;1034857;28;20037;-78
2023/12/06 00:36:35;;;;;;;0.30;0.30;;;;;;;0.70;100.00;95347.19;1039172;28;20025;-78
2023/12/06 00:37:05;;;;;;;0.00;0.00;;;;;;;0.70;100.00;95349.78;1035480;28;20033;-77
2023/12/06 00:37:36;;;;;;;0.00;0.00;;;;;;;0.67;100.00;95344.22;1039134;28;20017;-78
2023/12/06 00:38:06;;;;;;;0.00;0.00;;;;;;;0.63;100.00;95343.84;1025880;28;20027;-78
2023/12/06 00:38:37;;;;;;;0.08;0.08;;;;;;;0.65;100.00;95357.34;1027375;28;20030;-78
2023/12/06 00:39:08;;;;;;;0.00;0.00;;;;;;;0.62;100.00;95344.84;1026978;28;20058;-78
2023/12/06 00:39:38;;;;;;;0.08;0.08;;;;;;;0.61;100.00;95348.44;1029437;28;20614;-79
2023/12/06 00:40:09;;;;;;;0.30;0.30;;;;;;;0.64;100.00;95352.41;1038887;28;20037;-79
2023/12/06 00:40:40;;;;;;;0.28;0.28;;;;;;;0.66;100.00;95353.75;1039094;28;20036;-78
2023/12/06 00:41:10;;;;;;;0.00;0.00;;;;;;;0.58;100.00;95342.91;1039187;28;20034;-77
2023/12/06 00:41:41;;;;;;;0.00;0.00;;;;;;;0.64;100.00;95355.75;1039310;28;20036;-78
2023/12/06 00:42:11;;;;;;;0.00;0.00;;;;;;;0.63;100.00;95354.16;1038362;28;20059;-78
2023/12/06 00:42:42;;;;;;;0.20;0.20;;;;;;;0.62;100.00;95347.44;1031210;28;20121;-78
2023/12/06 00:43:12;;;;;;;0.80;0.57;;;;;;;0.64;100.00;95350.59;1034825;28;20665;-77
2023/12/06 00:43:43;;;;;;;0.08;0.08;;;;;;;0.66;100.00;95348.59;1035211;28;20030;-79
2023/12/06 00:44:13;;;;;;;0.10;0.10;;;;;;;0.66;100.00;95351.16;1034647;28;20025;-78
2023/12/06 00:44:44;;;;;;;0.00;0.00;;;;;;;0.64;100.00;95355.75;1038959;28;20025;-78
2023/12/06 00:45:14;;;;;;;0.00;0.00;;;;;;;0.54;100.00;95337.38;1031288;28;20014;-78
2023/12/06 00:45:45;;;;;;;0.30;0.30;;;;;;;0.59;100.00;95347.84;1035346;28;20393;-78
2023/12/06 00:46:15;;;;;;;0.00;0.00;;;;;;;0.51;100.00;95335.22;1043187;28;20527;-79
2023/12/06 00:46:46;;;;;;;0.00;0.00;;;;;;;0.59;100.00;95354.81;1039480;28;20025;-78
2023/12/06 00:47:16;;;;;;;0.10;0.10;;;;;;;0.57;100.00;95343.88;1034867;28;20018;-77
2023/12/06 00:47:47;;;;;;;0.25;0.25;;;;;;;0.57;100.00;95338.72;1026942;28;20378;-78
2023/12/06 00:48:17;;;;;;;1.55;0.38;;;;;;;0.64;100.00;95349.81;1026975;28;20029;-78
2023/12/06 00:48:48;;;;;;;0.47;0.20;;;;;;;0.60;100.00;95349.41;1035046;28;20474;-78
2023/12/06 00:49:18;;;;;;;0.00;0.00;;;;;;;0.59;100.00;95352.22;1039550;28;20029;-78
2023/12/06 00:49:49;;;;;;;0.00;0.00;;;;;;;0.55;100.00;95345.91;1040385;28;20029;-79
2023/12/06 00:50:19;;;;;;;0.00;0.00;;;;;;;0.64;100.00;95360.16;1038844;28;20021;-78
2023/12/06 00:50:50;;;;;;;0.20;0.20;;;;;;;0.64;100.00;95355.75;1043672;28;20604;-78
2023/12/06 00:51:20;;;;;;;0.00;0.00;;;;;;;0.58;100.00;95354.00;1039047;28;20022;-78
2023/12/06 00:51:51;;;;;;;0.10;0.10;;;;;;;0.56;100.00;95347.47;1030786;28;20025;-78
2023/12/06 00:52:21;;;;;;;0.17;0.17;;;;;;;0.58;100.00;95346.28;1026744;28;20022;-78
2023/12/06 00:52:51;;;;;;;0.00;0.00;;;;;;;0.56;100.00;95363.75;1038923;28;20453;-77
2023/12/06 00:53:22;;;;;;;0.00;0.00;;;;;;;0.53;100.00;95345.31;1031306;28;20022;-78
2023/12/06 00:53:52;;;;;;;0.20;0.20;;;;;;;0.56;100.00;95353.44;1018781;29;20019;-78
2023/12/06 00:54:23;;;;;;;0.10;0.10;;;;;;;0.54;100.00;95355.44;1027013;28;20101;-79
2023/12/06 00:54:53;;;;;;;0.40;0.38;;;;;;;0.55;100.00;95358.81;1031170;28;20065;-78
2023/12/06 00:55:24;;;;;;;0.28;0.28;;;;;;;0.62;100.00;95356.97;1026887;28;20369;-78
2023/12/06 00:55:54;;;;;;;0.00;0.00;;;;;;;0.60;100.00;95356.38;1026775;28;20487;-79
2023/12/06 00:56:25;;;;;;;0.00;0.00;;;;;;;0.54;100.00;95345.13;1031548;28;20015;-79
2023/12/06 00:56:55;;;;;;;0.00;0.00;;;;;;;0.55;100.00;95351.84;1026734;28;20015;-79
2023/12/06 00:57:26;;;;;;;0.00;0.00;;;;;;;0.59;100.00;95357.38;1035590;28;20528;-79
2023/12/06 00:57:56;;;;;;;0.25;0.25;;;;;;;0.53;100.00;95359.00;1039067;28;20025;-78
2023/12/06 00:58:27;;;;;;;0.15;0.13;;;;;;;0.56;100.00;95361.16;1036676;28;20029;-78
2023/12/06 00:58:57;;;;;;;0.00;0.00;;;;;;;0.58;100.00;95360.97;1046048;28;20027;-78
2023/12/06 00:59:28;;;;;;;0.00;0.00;;;;;;;0.55;100.00;95351.84;1043614;28;20021;-79
2023/12/06 00:59:58;;;;;;;0.25;0.25;;;;;;;0.53;100.00;95356.41;1043406;28;20408;-80
2023/12/06 01:00:29;;;;;;;0.50;0.50;;;;;;;0.51;100.00;95352.50;1039671;28;20021;-79
2023/12/06 01:00:59;;;;;;;0.00;0.00;;;;;;;0.49;100.00;95347.53;1035271;28;20098;-79
2023/12/06 01:01:30;;;;;;;0.40;0.40;;;;;;;0.47;100.00;95340.00;1039767;28;20025;-76
2023/12/06 01:02:00;;;;;;;0.05;0.05;;;;;;;0.51;100.00;95350.69;1026649;28;20054;-79
2023/12/06 01:02:31;;;;;;;0.28;0.20;;;;;;;0.45;100.00;95346.34;1034832;28;20026;-78
2023/12/06 01:03:01;;;;;;;0.00;0.00;;;;;;;0.43;100.00;95351.72;1039548;28;20444;-78
2023/12/06 01:03:32;;;;;;;0.10;0.10;;;;;;;0.52;100.00;95357.44;1039355;28;20072;-79
2023/12/06 01:04:02;;;;;;;1.73;0.40;;;;;;;0.48;100.00;95351.09;1045911;28;20431;-79
2023/12/06 01:04:37;;;;;;;0.10;0.10;;;;;;;0.52;100.00;95357.44;1039503;28;20112;-81
2023/12/06 01:05:07;;;;;;;0.00;0.00;;;;;;;0.56;100.00;95353.44;1035073;28;20038;-78
2023/12/06 01:05:38;;;;;;;0.22;0.22;;;;;;;0.54;100.00;95359.78;1032770;28;20149;-80
2023/12/06 01:06:08;;;;;;;0.10;0.10;;;;;;;0.51;100.00;95357.66;1027047;28;20039;-80
2023/12/06 01:06:39;;;;;;;0.00;0.00;;;;;;;0.53;100.00;95359.00;1031071;28;20022;-80
2023/12/06 01:07:09;;;;;;;0.47;0.47;;;;;;;0.52;100.00;95359.22;1039184;28;20293;-77
2023/12/06 01:07:40;;;;;;;0.55;0.55;;;;;;;0.50;100.00;95354.25;1026756;28;20039;-77
2023/12/06 01:08:10;;;;;;;0.10;0.10;;;;;;;0.47;100.00;95352.13;1022673;29;20162;-77
2023/12/06 01:08:41;;;;;;;1.38;1.38;;;;;;;0.45;100.00;95351.53;1027185;28;20026;-76
2023/12/06 01:09:11;;;;;;;0.00;0.00;;;;;;;0.50;100.00;95359.41;1029518;28;20669;-77
2023/12/06 01:09:42;;;;;;;0.00;0.00;;;;;;;0.50;100.00;95368.94;1031616;28;20022;-77
2023/12/06 01:10:12;;;;;;;0.45;0.10;;;;;;;0.48;100.00;95358.84;1034948;28;20422;-80
2023/12/06 01:10:43;;;;;;;0.85;0.20;;;;;;;0.45;100.00;95352.31;1035052;28;20041;-79
2023/12/06 01:11:13;;;;;;;0.55;0.52;;;;;;;0.47;100.00;95359.84;1027061;28;20035;-78
2023/12/06 01:11:44;;;;;;;0.10;0.10;;;;;;;0.48;100.00;95361.44;1031395;28;20034;-78
2023/12/06 01:12:14;;;;;;;0.35;0.35;;;;;;;0.47;100.00;95365.03;1030698;28;20489;-77
2023/12/06 01:12:45;;;;;;;0.40;0.05;;;;;;;0.43;100.00;95353.50;1035498;28;20022;-79
2023/12/06 01:13:15;;;;;;;0.05;0.05;;;;;;;0.44;100.00;95357.69;1026927;28;20033;-77
2023/12/06 01:13:46;;;;;;;0.28;0.28;;;;;;;0.34;100.00;95339.28;1031397;28;20033;-78
2023/12/06 01:14:16;;;;;;;0.60;0.60;;;;;;;0.45;100.00;95369.59;1030916;28;20113;-78
2023/12/06 01:14:47;;;;;;;0.00;0.00;;;;;;;0.44;100.00;95361.06;1035036;28;20037;-78
2023/12/06 01:15:17;;;;;;;0.00;0.00;;;;;;;0.40;100.00;95353.91;1034987;28;20033;-78
2023/12/06 01:15:48;;;;;;;0.00;0.00;;;;;;;0.38;100.00;95355.94;1031049;28;20031;-78
2023/12/06 01:16:19;;;;;;;0.28;0.28;;;;;;;0.42;100.00;95370.00;1018923;28;20031;-78
2023/12/06 01:16:49;;;;;;;1.04;0.64;;;;;;;0.43;100.00;95366.41;1027138;28;20113;-78
2023/12/06 01:17:20;;;;;;;0.00;0.00;;;;;;;0.43;100.00;95361.25;1034796;28;20076;-78
2023/12/06 01:17:50;;;;;;;0.00;0.00;;;;;;;0.40;100.00;95366.81;1035064;28;20033;-77
2023/12/06 01:18:21;;;;;;;0.00;0.00;;;;;;;0.41;100.00;95365.84;1030879;28;20078;-77
2023/12/06 01:18:51;;;;;;;0.43;0.43;;;;;;;0.43;100.00;95354.28;1034840;28;20061;-77
2023/12/06 01:19:22;;;;;;;0.22;0.22;;;;;;;0.42;100.00;95359.69;1031039;28;20581;-77
2023/12/06 01:19:52;;;;;;;0.00;0.00;;;;;;;0.47;100.00;95365.03;1030668;28;20077;-76
2023/12/06 01:20:23;;;;;;;0.00;0.00;;;;;;;0.44;100.00;95370.59;1030739;28;20038;-78
2023/12/06 01:20:53;;;;;;;0.03;0.03;;;;;;;0.39;100.00;95360.88;1035225;28;20041;-78
2023/12/06 01:21:24;;;;;;;0.00;0.00;;;;;;;0.40;100.00;95359.91;1035009;28;20069;-79
2023/12/06 01:21:54;;;;;;;0.13;0.13;;;;;;;0.43;100.00;95369.78;1034847;28;20398;-78
2023/12/06 01:22:24;;;;;;;0.00;0.00;;;;;;;0.42;100.00;95375.16;1030220;28;20041;-77
2023/12/06 01:22:55;;;;;;;0.00;0.00;;;;;;;0.37;100.00;95351.75;1024725;28;20034;-78
2023/12/06 01:23:25;;;;;;;0.88;0.65;;;;;;;0.41;100.00;95371.78;1026674;28;20077;-78
2023/12/06 01:23:56;;;;;;;0.20;0.20;;;;;;;0.39;100.00;95371.19;1026504;28;20031;-81
2023/12/06 01:24:26;;;;;;;0.00;0.00;;;;;;;0.43;100.00;95374.94;1025632;28;20432;-76
2023/12/06 01:24:57;;;;;;;0.08;0.08;;;;;;;0.40;100.00;95374.56;1026997;28;20026;-80
2023/12/06 01:25:28;;;;;;;0.02;0.02;;;;;;;0.45;100.00;95377.34;1034861;28;20853;-77
2023/12/06 01:25:58;;;;;;;0.05;0.05;;;;;;;0.40;100.00;95371.97;1038580;28;20067;-78
2023/12/06 01:26:29;;;;;;;0.65;0.30;;;;;;;0.39;100.00;95365.25;1038754;28;20059;-77
2023/12/06 01:26:59;;;;;;;0.00;0.00;;;;;;;0.44;100.00;95378.34;1030864;28;20490;-78
2023/12/06 01:27:30;;;;;;;0.00;0.00;;;;;;;0.44;100.00;95378.34;1026933;28;20039;-78
2023/12/06 01:28:00;;;;;;;0.00;0.00;;;;;;;0.40;100.00;95377.97;1022417;28;20028;-79
2023/12/06 01:28:31;;;;;;;0.00;0.00;;;;;;;0.38;100.00;95371.41;1030915;28;20041;-76
2023/12/06 01:29:04;;;;;;;0.10;0.10;;;;;;;0.40;100.00;95379.72;1034868;28;20049;-79
2023/12/06 01:29:34;;;;;;;0.78;0.68;;;;;;;0.36;100.00;95379.34;1035243;28;20579;-80
2023/12/06 01:30:06;;;;;;;0.00;0.00;;;;;;;0.34;100.00;95378.00;1035910;28;20033;-78
2023/12/06 01:30:36;;;;;;;0.00;0.00;;;;;;;0.38;100.00;95379.16;1036498;28;20063;-80
2023/12/06 01:31:07;;;;;;;0.28;0.28;;;;;;;0.41;100.00;95376.16;1033047;28;20042;-77
2023/12/06 01:31:38;;;;;;;0.17;0.17;;;;;;;0.42;100.00;95378.53;1031464;28;20038;-77
2023/12/06 01:32:09;;;;;;;0.00;0.00;;;;;;;0.41;100.00;95376.97;1030262;28;20069;-77
2023/12/06 01:32:40;;;;;;;0.10;0.10;;;;;;;0.41;100.00;95381.34;1031442;28;20031;-78
2023/12/06 01:33:10;;;;;;;0.60;0.54;;;;;;;0.35;100.00;95377.00;1031243;28;20039;-78
2023/12/06 01:33:41;;;;;;;0.00;0.00;;;;;;;0.39;100.00;95386.69;1031550;28;20446;-79
2023/12/06 01:34:11;;;;;;;0.00;0.00;;;;;;;0.35;100.00;95375.19;1027121;28;20030;-79
2023/12/06 01:34:42;;;;;;;0.10;0.10;;;;;;;0.35;100.00;95390.69;1027002;28;20486;-78
2023/12/06 01:35:13;;;;;;;0.63;0.13;;;;;;;0.41;100.00;95383.91;1027085;28;20019;-80
2023/12/06 01:35:43;;;;;;;0.00;0.00;;;;;;;0.39;100.00;95383.31;1027853;28;20026;-76
2023/12/06 01:36:14;;;;;;;0.10;0.10;;;;;;;0.36;100.00;95374.19;1028445;28;20034;-79
2023/12/06 01:36:44;;;;;;;0.20;0.10;;;;;;;0.38;100.00;95384.31;1027167;28;20023;-80
2023/12/06 01:37:15;;;;;;;0.00;0.00;;;;;;;0.36;100.00;95378.56;1035316;28;20268;-80
2023/12/06 01:37:45;;;;;;;0.00;0.00;;;;;;;0.37;100.00;95380.13;1035067;28;20074;-80
2023/12/06 01:38:15;;;;;;;0.00;0.00;;;;;;;0.36;100.00;95386.31;1031383;28;20014;-80
2023/12/06 01:38:46;;;;;;;0.43;0.43;;;;;;;0.36;100.00;95381.16;1025585;28;20011;-78
2023/12/06 01:39:16;;;;;;;0.17;0.17;;;;;;;0.37;100.00;95390.47;1039011;28;20053;-80
2023/12/06 01:39:47;;;;;;;0.00;0.00;;;;;;;0.33;100.00;95378.97;1041224;28;20017;-80
2023/12/06 01:40:17;;;;;;;0.08;0.08;;;;;;;0.33;100.00;95378.97;1039066;28;20014;-79
2023/12/06 01:40:48;;;;;;;0.08;0.08;;;;;;;0.35;100.00;95392.47;1027270;28;20019;-80
2023/12/06 01:41:18;;;;;;;0.20;0.20;;;;;;;0.36;100.00;95388.88;1029629;28;20083;-79
2023/12/06 01:41:50;;;;;;;0.10;0.10;;;;;;;0.34;100.00;95383.16;1037427;28;20041;-80
2023/12/06 01:42:21;;;;;;;0.00;0.00;;;;;;;0.28;100.00;95382.19;1043109;28;20018;-77
2023/12/06 01:42:51;;;;;;;0.17;0.17;;;;;;;0.36;100.00;95386.31;1038554;28;20756;-79
2023/12/06 01:43:22;;;;;;;0.10;0.10;;;;;;;0.36;100.00;95391.47;1019178;29;20032;-79
2023/12/06 01:43:52;;;;;;;0.22;0.22;;;;;;;0.33;100.00;95384.13;1021801;28;20027;-77
2023/12/06 01:44:23;;;;;;;0.00;0.00;;;;;;;0.33;100.00;95384.13;1022865;28;20030;-78
2023/12/06 01:44:53;;;;;;;0.85;0.50;;;;;;;0.29;100.00;95377.81;1034618;28;20022;-80
2023/12/06 01:45:24;;;;;;;0.15;0.15;;;;;;;0.35;100.00;95389.91;1039173;28;20734;-79
2023/12/06 01:45:54;;;;;;;3.20;0.28;;;;;;;0.31;100.00;95393.91;1034208;28;20041;-80
2023/12/06 01:46:25;;;;;;;0.00;0.00;;;;;;;0.33;100.00;95390.09;1037579;28;20029;-80
2023/12/06 01:46:55;;;;;;;0.43;0.30;;;;;;;0.31;100.00;95396.47;1037962;28;20032;-79
2023/12/06 01:47:26;;;;;;;1.00;0.43;;;;;;;0.32;100.00;95390.31;1035457;28;20104;-80
2023/12/06 01:47:57;;;;;;;0.00;0.00;;;;;;;0.27;100.00;95380.63;1030910;28;20022;-80
2023/12/06 01:48:27;;;;;;;0.00;0.00;;;;;;;0.33;100.00;95397.03;1023216;29;20034;-80
2023/12/06 01:48:58;;;;;;;0.00;0.00;;;;;;;0.23;100.00;95380.25;1045702;28;20380;-80
2023/12/06 01:49:28;;;;;;;0.00;0.00;;;;;;;0.30;100.00;95381.97;1043629;28;20013;-79
2023/12/06 01:49:59;;;;;;;0.28;0.28;;;;;;;0.27;100.00;95384.97;1027535;28;20022;-80
2023/12/06 01:50:29;;;;;;;0.00;0.00;;;;;;;0.27;100.00;95384.97;1027210;28;20018;-80
2023/12/06 01:51:00;;;;;;;0.00;0.00;;;;;;;0.21;100.00;95376.28;1039035;28;20096;-80
2023/12/06 01:51:31;;;;;;;0.52;0.52;;;;;;;0.29;100.00;95385.56;1033513;28;20021;-79
2023/12/06 01:52:01;;;;;;;7.78;1.65;;;;;;;0.30;100.00;95387.13;1042652;28;20005;-79
2023/12/06 01:52:32;;;;;;;0.00;0.00;;;;;;;0.30;100.00;95390.50;1039247;28;20043;-78
2023/12/06 01:53:04;;;;;;;0.00;0.00;;;;;;;0.31;100.00;95386.16;1030425;28;20058;-79
2023/12/06 01:53:35;;;;;;;0.16;0.16;;;;;;;0.32;100.00;95379.97;1031837;28;20021;-79
2023/12/06 01:54:05;;;;;;;0.10;0.10;;;;;;;0.37;100.00;95388.69;1043158;28;20032;-80
2023/12/06 01:54:36;;;;;;;0.10;0.10;;;;;;;0.23;100.00;95375.09;1039426;28;20022;-79
2023/12/06 01:55:06;;;;;;;0.00;0.00;;;;;;;0.12;100.00;95367.97;1023989;28;20023;-80
2023/12/06 01:55:37;;;;;;;0.25;0.25;;;;;;;0.31;100.00;95396.47;1039569;28;20022;-80
2023/12/06 01:56:07;;;;;;;0.10;0.05;;;;;;;0.25;100.00;95387.75;1043488;28;20025;-79
2023/12/06 01:56:38;;;;;;;0.13;0.13;;;;;;;0.35;100.00;95389.91;1029982;28;20033;-80
2023/12/06 01:57:09;;;;;;;0.10;0.10;;;;;;;0.32;100.00;95391.09;1039006;28;20444;-80
2023/12/06 01:57:39;;;;;;;0.00;0.00;;;;;;;0.29;100.00;95393.28;1046622;28;20035;-80
2023/12/06 01:58:09;;;;;;;0.10;0.10;;;;;;;0.34;100.00;95399.44;1038885;28;20021;-79
2023/12/06 01:58:40;;;;;;;0.20;0.20;;;;;;;0.33;100.00;95392.66;1026955;28;20027;-79
2023/12/06 01:59:11;;;;;;;0.10;0.10;;;;;;;0.29;100.00;95382.97;1035117;28;20026;-78
2023/12/06 01:59:42;;;;;;;0.05;0.05;;;;;;;0.30;100.00;95395.66;1034909;28;20025;-79
2023/12/06 02:00:13;;;;;;;0.00;0.00;;;;;;;0.26;100.00;95389.34;1031084;28;20018;-79
2023/12/06 02:00:43;;;;;;;0.46;0.46;;;;;;;0.26;100.00;95378.22;1022824;28;20031;-80
2023/12/06 02:01:14;;;;;;;1.77;0.70;;;;;;;0.30;100.00;95389.72;1038839;28;20037;-80
2023/12/06 02:01:44;;;;;;;0.00;0.00;;;;;;;0.29;100.00;95395.88;1031029;28;20010;-80
2023/12/06 02:02:15;;;;;;;0.75;0.75;;;;;;;0.26;100.00;95393.72;1020026;28;20027;-80
2023/12/06 02:02:46;;;;;;;0.00;0.00;;;;;;;0.32;100.00;95395.47;1030852;28;20026;-79
2023/12/06 02:03:16;;;;;;;0.00;0.00;;;;;;;0.30;100.00;95400.03;1031134;28;20026;-80
2023/12/06 02:03:47;;;;;;;0.05;0.05;;;;;;;0.13;100.00;95373.91;1034948;28;20033;-81
2023/12/06 02:04:17;;;;;;;0.00;0.00;;;;;;;0.28;100.00;95399.47;1027123;28;20053;-81
2023/12/06 02:04:48;;;;;;;0.30;0.30;;;;;;;0.25;100.00;95387.75;1026762;28;20034;-80
2023/12/06 02:05:18;;;;;;;0.55;0.55;;;;;;;0.25;100.00;95387.75;1034870;28;20109;-81
2023/12/06 02:05:49;;;;;;;0.00;0.00;;;;;;;0.22;100.00;95394.13;1027863;28;20033;-82
2023/12/06 02:06:20;;;;;;;0.10;0.10;;;;;;;0.28;100.00;95396.88;1035011;28;20077;-82
2023/12/06 02:06:50;;;;;;;0.00;0.00;;;;;;;0.29;100.00;95393.28;1034938;28;20072;-80
2023/12/06 02:07:22;;;;;;;0.43;0.43;;;;;;;0.31;100.00;95396.47;1032624;28;20030;-82
2023/12/06 02:07:52;;;;;;;0.12;0.12;;;;;;;0.17;100.00;95380.28;1039282;28;20029;-81
2023/12/06 02:08:23;;;;;;;0.13;0.13;;;;;;;0.27;100.00;95393.50;1035270;28;20074;-81
2023/12/06 02:08:53;;;;;;;0.00;0.00;;;;;;;0.33;100.00;95397.03;1022922;28;20027;-82
2023/12/06 02:09:24;;;;;;;0.08;0.08;;;;;;;0.26;100.00;95391.13;1031018;28;20025;-81
2023/12/06 02:09:54;;;;;;;0.00;0.00;;;;;;;0.30;100.00;95397.44;1039389;28;20017;-80
2023/12/06 02:10:25;;;;;;;0.00;0.00;;;;;;;0.28;100.00;95402.03;1039302;28;20029;-81
2023/12/06 02:10:55;;;;;;;0.00;0.00;;;;;;;0.22;100.00;95399.28;1038754;28;20516;-78
2023/12/06 02:11:26;;;;;;;0.10;0.10;;;;;;;0.23;100.00;95392.31;1026383;28;20004;-80
2023/12/06 02:11:56;;;;;;;0.00;0.00;;;;;;;0.29;100.00;95403.63;1039046;28;20029;-81
2023/12/06 02:12:27;;;;;;;0.00;0.00;;;;;;;0.31;100.00;95406.78;1035076;28;20050;-81
2023/12/06 02:12:57;;;;;;;0.20;0.20;;;;;;;0.30;100.00;95405.19;1035012;28;20095;-82
2023/12/06 02:13:28;;;;;;;0.00;0.00;;;;;;;0.32;100.00;95404.00;1030688;28;20493;-82
2023/12/06 02:13:58;;;;;;;0.17;0.17;;;;;;;0.22;100.00;95378.63;1026989;28;20030;-81
2023/12/06 02:14:33;;;;;;;0.00;0.00;;;;;;;0.26;100.00;95391.91;1030896;28;20014;-82
2023/12/06 02:15:04;;;;;;;0.10;0.10;;;;;;;0.31;100.00;95401.63;1035234;28;20098;-79
2023/12/06 02:15:35;;;;;;;0.00;0.00;;;;;;;0.32;100.00;95393.66;1039249;28;20582;-81
2023/12/06 02:16:05;;;;;;;0.20;0.20;;;;;;;0.26;100.00;95394.50;1026270;28;20023;-80
2023/12/06 02:16:36;;;;;;;0.10;0.10;;;;;;;0.38;100.00;95403.19;1035205;28;20020;-80
2023/12/06 02:17:06;;;;;;;0.00;0.00;;;;;;;0.33;100.00;95397.03;1034869;28;20022;-79
2023/12/06 02:17:37;;;;;;;0.20;0.20;;;;;;;0.33;100.00;95407.38;1038676;28;20562;-81
2023/12/06 02:18:07;;;;;;;0.00;0.00;;;;;;;0.35;100.00;95405.38;1027079;28;20034;-81
2023/12/06 02:18:38;;;;;;;0.05;0.05;;;;;;;0.33;100.00;95390.09;1039151;28;20022;-81
2023/12/06 02:19:09;;;;;;;0.00;0.00;;;;;;;0.39;100.00;95403.97;1031163;28;20077;-79
2023/12/06 02:19:40;;;;;;;0.00;0.00;;;;;;;0.41;100.00;95405.34;1026986;28;20019;-81
2023/12/06 02:20:10;;;;;;;0.00;0.00;;;;;;;0.38;100.00;95397.22;1039145;28;20037;-81
2023/12/06 02:20:41;;;;;;;0.00;0.00;;;;;;;0.38;100.00;95398.00;1023275;29;20035;-80
2023/12/06 02:21:11;;;;;;;0.00;0.00;;;;;;;0.39;100.00;95401.38;1023178;29;20511;-82
2023/12/06 02:21:42;;;;;;;0.00;0.00;;;;;;;0.28;100.00;95386.56;1035187;28;20379;-81
2023/12/06 02:22:12;;;;;;;0.00;0.00;;;;;;;0.40;100.00;95410.69;1030770;28;20073;-81
2023/12/06 02:22:43;;;;;;;0.30;0.30;;;;;;;0.34;100.00;95389.09;1036526;28;20029;-79
2023/12/06 02:23:13;;;;;;;0.00;0.00;;;;;;;0.39;100.00;95403.97;1031025;28;20027;-80
2023/12/06 02:23:43;;;;;;;0.00;0.00;;;;;;;0.27;100.00;95387.53;1037777;28;20029;-80
2023/12/06 02:24:14;;;;;;;0.08;0.08;;;;;;;0.36;100.00;95402.56;1026780;28;20089;-80